Artem, Russia
Current Conditions -  °F | °C
As of 12:30 AM on Wednesday 28 Jan 2015 (Local Time) from UHWW Reporting Station
Clear Clear  
Wind Chill: -11°   Ceiling: Unl
Heat Index:   Visibility: 6mi
Dew Point: -18°   Wind: 11mph
Humidity: 33%   Direction: 350°N
Pressure: 30.3"   Gusts: NA
Location:  43.38°N, 132.19°E
Report Text: UHWW 271430Z 35005MPS 9999 SKC M15/M28 Q1026 NOSIG RMKQFE769/1025 57CLRD60
Loading
Personal Weather Stations






























Interactive Weather Map New forecast layout! Learn more

10-Day Weather Forecast

Advertisements
Track Severe Weather on mobile